sensor_id;sensor_type;location;lat;lon;timestamp;temperature;humidity
52739;DHT22;52466;40.122;18.318;2022-08-19T04:37:26;26.30;66.70
52739;DHT22;52466;40.122;18.318;2022-08-19T04:40:43;26.50;66.60
52739;DHT22;52466;40.122;18.318;2022-08-19T04:44:10;26.60;66.60
52739;DHT22;52466;40.122;18.318;2022-08-19T04:47:17;26.80;66.60
52739;DHT22;52466;40.122;18.318;2022-08-19T04:50:26;27.00;66.70
52739;DHT22;52466;40.122;18.318;2022-08-19T04:53:35;27.10;66.70
52739;DHT22;52466;40.122;18.318;2022-08-19T04:56:44;27.40;66.70
52739;DHT22;52466;40.122;18.318;2022-08-19T04:59:56;27.60;66.80
52739;DHT22;52466;40.122;18.318;2022-08-19T05:03:04;27.80;66.70
52739;DHT22;52466;40.122;18.318;2022-08-19T05:06:13;28.10;66.40
52739;DHT22;52466;40.122;18.318;2022-08-19T05:09:21;28.40;66.20
52739;DHT22;52466;40.122;18.318;2022-08-19T05:12:29;28.90;65.50
52739;DHT22;52466;40.122;18.318;2022-08-19T05:15:37;29.60;64.30
52739;DHT22;52466;40.122;18.318;2022-08-19T05:18:45;30.40;62.60
52739;DHT22;52466;40.122;18.318;2022-08-19T05:22:11;31.20;60.90
52739;DHT22;52466;40.122;18.318;2022-08-19T05:25:39;31.90;59.30
52739;DHT22;52466;40.122;18.318;2022-08-19T05:28:47;32.40;58.40
52739;DHT22;52466;40.122;18.318;2022-08-19T05:31:55;32.90;57.40
52739;DHT22;52466;40.122;18.318;2022-08-19T05:35:04;33.50;56.20
52739;DHT22;52466;40.122;18.318;2022-08-19T05:38:11;34.20;54.90
52739;DHT22;52466;40.122;18.318;2022-08-19T05:41:21;34.80;53.60
52739;DHT22;52466;40.122;18.318;2022-08-19T05:44:33;35.20;52.90
52739;DHT22;52466;40.122;18.318;2022-08-19T05:47:41;35.80;51.80
52739;DHT22;52466;40.122;18.318;2022-08-19T05:50:49;36.40;50.50
52739;DHT22;52466;40.122;18.318;2022-08-19T05:53:57;37.00;49.60
52739;DHT22;52466;40.122;18.318;2022-08-19T05:57:05;37.60;48.40
52739;DHT22;52466;40.122;18.318;2022-08-19T06:00:13;38.20;47.30
52739;DHT22;52466;40.122;18.318;2022-08-19T06:03:21;39.00;46.10
52739;DHT22;52466;40.122;18.318;2022-08-19T06:06:29;39.90;44.60
52739;DHT22;52466;40.122;18.318;2022-08-19T06:09:37;40.90;43.00
52739;DHT22;52466;40.122;18.318;2022-08-19T06:12:44;41.60;41.50
52739;DHT22;52466;40.122;18.318;2022-08-19T06:15:52;42.20;40.20
52739;DHT22;52466;40.122;18.318;2022-08-19T06:19:02;42.50;39.60
52739;DHT22;52466;40.122;18.318;2022-08-19T06:22:10;43.00;38.60
52739;DHT22;52466;40.122;18.318;2022-08-19T06:25:19;43.50;37.70
52739;DHT22;52466;40.122;18.318;2022-08-19T06:28:27;43.60;37.00
52739;DHT22;52466;40.122;18.318;2022-08-19T06:31:35;43.90;36.80
52739;DHT22;52466;40.122;18.318;2022-08-19T06:34:44;44.40;35.90
52739;DHT22;52466;40.122;18.318;2022-08-19T06:37:51;44.50;35.10
52739;DHT22;52466;40.122;18.318;2022-08-19T06:41:03;44.20;35.40
52739;DHT22;52466;40.122;18.318;2022-08-19T06:44:11;43.80;35.30
52739;DHT22;52466;40.122;18.318;2022-08-19T06:47:20;42.50;36.70
52739;DHT22;52466;40.122;18.318;2022-08-19T06:50:28;41.50;38.10
52739;DHT22;52466;40.122;18.318;2022-08-19T06:53:36;40.60;39.30
52739;DHT22;52466;40.122;18.318;2022-08-19T06:56:43;40.10;40.00
52739;DHT22;52466;40.122;18.318;2022-08-19T06:59:53;39.80;40.40
52739;DHT22;52466;40.122;18.318;2022-08-19T07:03:00;39.50;40.70
52739;DHT22;52466;40.122;18.318;2022-08-19T07:06:12;39.40;40.90
52739;DHT22;52466;40.122;18.318;2022-08-19T07:09:22;38.90;41.60
52739;DHT22;52466;40.122;18.318;2022-08-19T07:12:31;38.70;42.40
52739;DHT22;52466;40.122;18.318;2022-08-19T07:15:42;38.60;42.30
52739;DHT22;52466;40.122;18.318;2022-08-19T07:18:50;38.50;42.10
52739;DHT22;52466;40.122;18.318;2022-08-19T07:22:01;38.40;41.90
52739;DHT22;52466;40.122;18.318;2022-08-19T07:25:09;38.30;42.00
52739;DHT22;52466;40.122;18.318;2022-08-19T07:28:17;38.40;41.50
52739;DHT22;52466;40.122;18.318;2022-08-19T07:31:27;38.50;41.20
52739;DHT22;52466;40.122;18.318;2022-08-19T07:34:35;38.70;40.90
52739;DHT22;52466;40.122;18.318;2022-08-19T07:37:45;38.80;40.80
52739;DHT22;52466;40.122;18.318;2022-08-19T07:40:53;39.00;40.50
52739;DHT22;52466;40.122;18.318;2022-08-19T07:44:01;39.10;40.10
52739;DHT22;52466;40.122;18.318;2022-08-19T07:47:11;39.30;39.30
52739;DHT22;52466;40.122;18.318;2022-08-19T07:50:21;39.10;39.00
52739;DHT22;52466;40.122;18.318;2022-08-19T07:53:30;38.90;38.60
52739;DHT22;52466;40.122;18.318;2022-08-19T07:56:38;38.70;38.70
52739;DHT22;52466;40.122;18.318;2022-08-19T07:59:46;38.60;38.90
52739;DHT22;52466;40.122;18.318;2022-08-19T08:02:54;38.50;38.60
52739;DHT22;52466;40.122;18.318;2022-08-19T08:06:02;38.50;38.50
52739;DHT22;52466;40.122;18.318;2022-08-19T08:09:33;38.50;38.30
52739;DHT22;52466;40.122;18.318;2022-08-19T08:12:41;38.50;38.20
52739;DHT22;52466;40.122;18.318;2022-08-19T08:15:49;38.60;38.30
52739;DHT22;52466;40.122;18.318;2022-08-19T08:18:57;38.60;38.50
52739;DHT22;52466;40.122;18.318;2022-08-19T08:22:05;38.50;38.70
52739;DHT22;52466;40.122;18.318;2022-08-19T08:25:16;38.40;38.80
52739;DHT22;52466;40.122;18.318;2022-08-19T08:28:26;38.30;39.10
52739;DHT22;52466;40.122;18.318;2022-08-19T08:31:34;38.10;39.50
52739;DHT22;52466;40.122;18.318;2022-08-19T08:34:42;38.00;39.60
52739;DHT22;52466;40.122;18.318;2022-08-19T08:37:52;38.00;39.60
52739;DHT22;52466;40.122;18.318;2022-08-19T08:41:13;38.00;39.10
52739;DHT22;52466;40.122;18.318;2022-08-19T08:44:38;38.00;38.40
52739;DHT22;52466;40.122;18.318;2022-08-19T08:47:52;37.90;37.60
52739;DHT22;52466;40.122;18.318;2022-08-19T08:51:05;37.70;37.50
52739;DHT22;52466;40.122;18.318;2022-08-19T08:54:45;37.70;37.50
52739;DHT22;52466;40.122;18.318;2022-08-19T08:58:54;37.70;37.30
52739;DHT22;52466;40.122;18.318;2022-08-19T09:02:04;37.60;37.60
52739;DHT22;52466;40.122;18.318;2022-08-19T09:05:12;37.50;38.20
52739;DHT22;52466;40.122;18.318;2022-08-19T09:08:40;37.40;39.10
52739;DHT22;52466;40.122;18.318;2022-08-19T09:12:12;37.40;39.90
52739;DHT22;52466;40.122;18.318;2022-08-19T09:15:30;37.10;41.10
52739;DHT22;52466;40.122;18.318;2022-08-19T09:18:46;37.00;41.70
52739;DHT22;52466;40.122;18.318;2022-08-19T09:21:54;36.90;42.40
52739;DHT22;52466;40.122;18.318;2022-08-19T09:25:03;36.80;42.90
52739;DHT22;52466;40.122;18.318;2022-08-19T09:28:12;36.60;44.60
52739;DHT22;52466;40.122;18.318;2022-08-19T09:31:24;36.50;45.80
52739;DHT22;52466;40.122;18.318;2022-08-19T09:34:34;36.50;46.30
52739;DHT22;52466;40.122;18.318;2022-08-19T09:37:42;36.40;46.60
52739;DHT22;52466;40.122;18.318;2022-08-19T09:40:50;36.30;46.80
52739;DHT22;52466;40.122;18.318;2022-08-19T09:43:58;36.30;46.80
52739;DHT22;52466;40.122;18.318;2022-08-19T09:47:07;36.30;47.20
52739;DHT22;52466;40.122;18.318;2022-08-19T09:50:15;36.40;47.90
52739;DHT22;52466;40.122;18.318;2022-08-19T09:53:24;36.40;48.30
52739;DHT22;52466;40.122;18.318;2022-08-19T09:56:32;36.50;48.60
52739;DHT22;52466;40.122;18.318;2022-08-19T09:59:40;36.50;48.40
52739;DHT22;52466;40.122;18.318;2022-08-19T10:02:47;36.50;48.60
52739;DHT22;52466;40.122;18.318;2022-08-19T10:05:58;36.50;48.60
52739;DHT22;52466;40.122;18.318;2022-08-19T10:09:07;36.50;48.50
52739;DHT22;52466;40.122;18.318;2022-08-19T10:12:17;36.50;48.70
52739;DHT22;52466;40.122;18.318;2022-08-19T10:15:25;36.60;48.50
52739;DHT22;52466;40.122;18.318;2022-08-19T10:18:33;36.70;48.00
52739;DHT22;52466;40.122;18.318;2022-08-19T10:21:41;36.80;47.30
52739;DHT22;52466;40.122;18.318;2022-08-19T10:24:49;36.80;46.90
52739;DHT22;52466;40.122;18.318;2022-08-19T10:27:56;36.90;46.60
52739;DHT22;52466;40.122;18.318;2022-08-19T10:31:13;37.00;46.50
52739;DHT22;52466;40.122;18.318;2022-08-19T10:34:16;37.10;45.90
52739;DHT22;52466;40.122;18.318;2022-08-19T10:37:24;37.00;45.40
52739;DHT22;52466;40.122;18.318;2022-08-19T10:40:32;37.00;45.40
52739;DHT22;52466;40.122;18.318;2022-08-19T10:43:41;37.00;45.10
52739;DHT22;52466;40.122;18.318;2022-08-19T10:46:49;37.00;45.00
52739;DHT22;52466;40.122;18.318;2022-08-19T10:49:57;37.10;44.40
52739;DHT22;52466;40.122;18.318;2022-08-19T10:53:23;37.10;44.00
52739;DHT22;52466;40.122;18.318;2022-08-19T10:56:33;37.20;43.70
52739;DHT22;52466;40.122;18.318;2022-08-19T10:59:59;37.10;43.60
52739;DHT22;52466;40.122;18.318;2022-08-19T11:03:07;37.10;43.50
52739;DHT22;52466;40.122;18.318;2022-08-19T11:06:15;37.00;43.10
52739;DHT22;52466;40.122;18.318;2022-08-19T11:09:24;36.90;43.40
52739;DHT22;52466;40.122;18.318;2022-08-19T11:12:33;36.90;43.20
52739;DHT22;52466;40.122;18.318;2022-08-19T11:15:40;37.00;42.80
52739;DHT22;52466;40.122;18.318;2022-08-19T11:18:51;37.10;42.10
52739;DHT22;52466;40.122;18.318;2022-08-19T11:21:59;37.00;41.90
52739;DHT22;52466;40.122;18.318;2022-08-19T11:25:10;37.00;41.10
52739;DHT22;52466;40.122;18.318;2022-08-19T11:28:18;37.10;40.20
52739;DHT22;52466;40.122;18.318;2022-08-19T11:31:29;37.10;40.20
52739;DHT22;52466;40.122;18.318;2022-08-19T11:34:38;37.10;39.70
52739;DHT22;52466;40.122;18.318;2022-08-19T11:37:46;37.10;39.90
52739;DHT22;52466;40.122;18.318;2022-08-19T11:40:57;37.20;40.00
52739;DHT22;52466;40.122;18.318;2022-08-19T11:44:06;37.30;39.70
52739;DHT22;52466;40.122;18.318;2022-08-19T11:47:15;37.30;38.90
52739;DHT22;52466;40.122;18.318;2022-08-19T11:50:23;37.40;38.40
52739;DHT22;52466;40.122;18.318;2022-08-19T11:53:31;37.40;37.60
52739;DHT22;52466;40.122;18.318;2022-08-19T11:56:39;37.40;37.20
52739;DHT22;52466;40.122;18.318;2022-08-19T11:59:51;37.50;37.10
52739;DHT22;52466;40.122;18.318;2022-08-19T12:02:59;37.50;36.80
52739;DHT22;52466;40.122;18.318;2022-08-19T12:06:10;37.50;37.90
52739;DHT22;52466;40.122;18.318;2022-08-19T12:09:20;37.60;41.60
52739;DHT22;52466;40.122;18.318;2022-08-19T12:12:29;37.50;43.20
52739;DHT22;52466;40.122;18.318;2022-08-19T12:15:38;37.50;43.40
52739;DHT22;52466;40.122;18.318;2022-08-19T12:18:47;37.40;43.70
52739;DHT22;52466;40.122;18.318;2022-08-19T12:21:59;37.30;44.30
52739;DHT22;52466;40.122;18.318;2022-08-19T12:25:11;37.20;45.00
52739;DHT22;52466;40.122;18.318;2022-08-19T12:28:21;37.20;42.60
52739;DHT22;52466;40.122;18.318;2022-08-19T12:31:29;37.20;41.20
52739;DHT22;52466;40.122;18.318;2022-08-19T12:34:37;37.20;40.90
52739;DHT22;52466;40.122;18.318;2022-08-19T12:37:47;37.20;41.20
52739;DHT22;52466;40.122;18.318;2022-08-19T12:40:55;37.30;41.30
52739;DHT22;52466;40.122;18.318;2022-08-19T12:44:03;37.40;41.70
52739;DHT22;52466;40.122;18.318;2022-08-19T12:47:06;37.30;42.40
52739;DHT22;52466;40.122;18.318;2022-08-19T12:50:14;37.20;43.30
52739;DHT22;52466;40.122;18.318;2022-08-19T12:53:22;37.10;44.00
52739;DHT22;52466;40.122;18.318;2022-08-19T12:56:30;37.00;44.40
52739;DHT22;52466;40.122;18.318;2022-08-19T12:59:38;37.00;44.20
52739;DHT22;52466;40.122;18.318;2022-08-19T13:02:48;37.00;42.60
52739;DHT22;52466;40.122;18.318;2022-08-19T13:05:59;37.10;41.60
52739;DHT22;52466;40.122;18.318;2022-08-19T13:09:07;37.10;40.60
52739;DHT22;52466;40.122;18.318;2022-08-19T13:12:15;37.10;39.30
52739;DHT22;52466;40.122;18.318;2022-08-19T13:15:23;37.00;37.80
52739;DHT22;52466;40.122;18.318;2022-08-19T13:18:30;37.00;37.20
52739;DHT22;52466;40.122;18.318;2022-08-19T13:21:39;37.10;36.80
52739;DHT22;52466;40.122;18.318;2022-08-19T13:24:47;37.20;36.60
52739;DHT22;52466;40.122;18.318;2022-08-19T13:27:56;37.30;36.70
52739;DHT22;52466;40.122;18.318;2022-08-19T13:31:03;37.20;36.90
52739;DHT22;52466;40.122;18.318;2022-08-19T13:34:32;37.10;37.20
52739;DHT22;52466;40.122;18.318;2022-08-19T13:37:41;37.00;38.10
52739;DHT22;52466;40.122;18.318;2022-08-19T13:40:50;37.00;38.80
52739;DHT22;52466;40.122;18.318;2022-08-19T13:43:59;36.80;42.50
52739;DHT22;52466;40.122;18.318;2022-08-19T13:47:13;36.50;47.80
52739;DHT22;52466;40.122;18.318;2022-08-19T13:50:43;36.00;51.70
52739;DHT22;52466;40.122;18.318;2022-08-19T13:53:51;35.50;53.80
52739;DHT22;52466;40.122;18.318;2022-08-19T13:56:59;35.10;55.00
52739;DHT22;52466;40.122;18.318;2022-08-19T14:00:17;35.00;56.10
52739;DHT22;52466;40.122;18.318;2022-08-19T14:03:26;34.80;57.00
52739;DHT22;52466;40.122;18.318;2022-08-19T14:06:34;34.70;57.60
52739;DHT22;52466;40.122;18.318;2022-08-19T14:09:42;34.50;58.60
52739;DHT22;52466;40.122;18.318;2022-08-19T14:12:56;34.40;59.20
52739;DHT22;52466;40.122;18.318;2022-08-19T14:16:10;34.30;59.70
52739;DHT22;52466;40.122;18.318;2022-08-19T14:19:29;34.20;60.50
52739;DHT22;52466;40.122;18.318;2022-08-19T14:23:01;34.10;61.40
52739;DHT22;52466;40.122;18.318;2022-08-19T14:26:12;33.80;62.40
52739;DHT22;52466;40.122;18.318;2022-08-19T14:29:20;33.80;62.80
52739;DHT22;52466;40.122;18.318;2022-08-19T14:32:28;33.80;62.80
52739;DHT22;52466;40.122;18.318;2022-08-19T14:35:37;33.80;62.80
52739;DHT22;52466;40.122;18.318;2022-08-19T14:38:45;33.70;63.20
52739;DHT22;52466;40.122;18.318;2022-08-19T14:41:52;33.60;63.70
52739;DHT22;52466;40.122;18.318;2022-08-19T14:45:01;33.50;64.10
52739;DHT22;52466;40.122;18.318;2022-08-19T14:48:09;33.40;64.70
52739;DHT22;52466;40.122;18.318;2022-08-19T14:51:18;33.20;65.60
52739;DHT22;52466;40.122;18.318;2022-08-19T14:54:26;33.00;66.30
52739;DHT22;52466;40.122;18.318;2022-08-19T14:57:34;32.80;67.60
52739;DHT22;52466;40.122;18.318;2022-08-19T15:00:41;32.50;68.50
52739;DHT22;52466;40.122;18.318;2022-08-19T15:03:50;32.40;69.10
52739;DHT22;52466;40.122;18.318;2022-08-19T15:07:00;32.30;69.70
52739;DHT22;52466;40.122;18.318;2022-08-19T15:10:09;32.20;70.10
52739;DHT22;52466;40.122;18.318;2022-08-19T15:13:18;32.10;70.20
52739;DHT22;52466;40.122;18.318;2022-08-19T15:16:27;32.00;70.70
52739;DHT22;52466;40.122;18.318;2022-08-19T15:19:35;31.80;71.30
52739;DHT22;52466;40.122;18.318;2022-08-19T15:22:43;31.60;71.80
52739;DHT22;52466;40.122;18.318;2022-08-19T15:25:51;31.50;72.20
52739;DHT22;52466;40.122;18.318;2022-08-19T15:29:02;31.50;72.40
52739;DHT22;52466;40.122;18.318;2022-08-19T15:32:10;31.50;72.40
52739;DHT22;52466;40.122;18.318;2022-08-19T15:35:19;31.50;72.70
52739;DHT22;52466;40.122;18.318;2022-08-19T15:38:27;31.40;72.90
52739;DHT22;52466;40.122;18.318;2022-08-19T15:41:35;31.20;73.20
52739;DHT22;52466;40.122;18.318;2022-08-19T15:44:43;31.10;73.70
52739;DHT22;52466;40.122;18.318;2022-08-19T15:47:51;31.00;74.20
52739;DHT22;52466;40.122;18.318;2022-08-19T15:50:59;30.90;74.60
52739;DHT22;52466;40.122;18.318;2022-08-19T15:54:10;30.90;74.70
52739;DHT22;52466;40.122;18.318;2022-08-19T15:57:19;30.80;75.00
52739;DHT22;52466;40.122;18.318;2022-08-19T16:00:28;30.70;74.90
52739;DHT22;52466;40.122;18.318;2022-08-19T16:03:56;30.70;74.90
52739;DHT22;52466;40.122;18.318;2022-08-19T16:07:23;30.80;74.80
52739;DHT22;52466;40.122;18.318;2022-08-19T16:10:31;30.90;74.50
52739;DHT22;52466;40.122;18.318;2022-08-19T16:13:39;30.90;74.20
52739;DHT22;52466;40.122;18.318;2022-08-19T16:16:47;30.90;74.10
52739;DHT22;52466;40.122;18.318;2022-08-19T16:19:55;30.90;74.20
52739;DHT22;52466;40.122;18.318;2022-08-19T16:23:03;31.00;74.10
52739;DHT22;52466;40.122;18.318;2022-08-19T16:26:12;31.10;73.60
52739;DHT22;52466;40.122;18.318;2022-08-19T16:29:21;31.20;73.30
52739;DHT22;52466;40.122;18.318;2022-08-19T16:32:32;31.40;72.60
52739;DHT22;52466;40.122;18.318;2022-08-19T16:35:39;31.50;71.50
52739;DHT22;52466;40.122;18.318;2022-08-19T16:38:48;31.60;70.80
52739;DHT22;52466;40.122;18.318;2022-08-19T16:41:55;31.70;69.80
52739;DHT22;52466;40.122;18.318;2022-08-19T16:45:04;31.80;68.80
52739;DHT22;52466;40.122;18.318;2022-08-19T16:48:11;31.90;68.30
52739;DHT22;52466;40.122;18.318;2022-08-19T16:51:19;31.90;68.10
52739;DHT22;52466;40.122;18.318;2022-08-19T16:54:29;31.90;68.10
52739;DHT22;52466;40.122;18.318;2022-08-19T16:57:37;31.90;68.30
52739;DHT22;52466;40.122;18.318;2022-08-19T17:00:45;31.90;68.30
52739;DHT22;52466;40.122;18.318;2022-08-19T17:03:55;31.80;68.40
52739;DHT22;52466;40.122;18.318;2022-08-19T17:07:02;31.80;68.50
52739;DHT22;52466;40.122;18.318;2022-08-19T17:10:12;31.70;68.60
52739;DHT22;52466;40.122;18.318;2022-08-19T17:13:20;31.70;68.70
52739;DHT22;52466;40.122;18.318;2022-08-19T17:16:31;31.60;68.80
52739;DHT22;52466;40.122;18.318;2022-08-19T17:19:40;31.60;68.90
52739;DHT22;52466;40.122;18.318;2022-08-19T17:22:51;31.70;68.80
52739;DHT22;52466;40.122;18.318;2022-08-19T17:25:58;31.60;68.70
52739;DHT22;52466;40.122;18.318;2022-08-19T17:29:06;31.50;68.80
52739;DHT22;52466;40.122;18.318;2022-08-19T17:32:14;31.50;68.90
52739;DHT22;52466;40.122;18.318;2022-08-19T17:35:21;31.50;68.90
52739;DHT22;52466;40.122;18.318;2022-08-19T17:38:29;31.50;69.00
52739;DHT22;52466;40.122;18.318;2022-08-19T17:41:37;31.40;69.10
52739;DHT22;52466;40.122;18.318;2022-08-19T17:44:46;31.40;69.30
52739;DHT22;52466;40.122;18.318;2022-08-19T17:47:54;31.30;69.30
52739;DHT22;52466;40.122;18.318;2022-08-19T17:51:36;31.30;69.20
52739;DHT22;52466;40.122;18.318;2022-08-19T17:54:47;31.40;69.20
52739;DHT22;52466;40.122;18.318;2022-08-19T17:57:55;31.40;69.10
52739;DHT22;52466;40.122;18.318;2022-08-19T18:01:03;31.40;68.90
52739;DHT22;52466;40.122;18.318;2022-08-19T18:04:12;31.40;68.80
52739;DHT22;52466;40.122;18.318;2022-08-19T18:07:19;31.40;68.70
52739;DHT22;52466;40.122;18.318;2022-08-19T18:10:29;31.40;68.50
52739;DHT22;52466;40.122;18.318;2022-08-19T18:13:38;31.40;68.40
52739;DHT22;52466;40.122;18.318;2022-08-19T18:16:47;31.40;68.40
52739;DHT22;52466;40.122;18.318;2022-08-19T18:19:54;31.30;68.30
52739;DHT22;52466;40.122;18.318;2022-08-19T18:23:02;31.30;68.40
52739;DHT22;52466;40.122;18.318;2022-08-19T18:26:10;31.30;68.40
52739;DHT22;52466;40.122;18.318;2022-08-19T18:29:18;31.30;68.40
52739;DHT22;52466;40.122;18.318;2022-08-19T18:32:28;31.30;68.30
52739;DHT22;52466;40.122;18.318;2022-08-19T18:35:43;31.30;68.20
52739;DHT22;52466;40.122;18.318;2022-08-19T18:38:52;31.30;68.10
52739;DHT22;52466;40.122;18.318;2022-08-19T18:42:18;31.30;68.00
52739;DHT22;52466;40.122;18.318;2022-08-19T18:45:44;31.30;67.90
52739;DHT22;52466;40.122;18.318;2022-08-19T18:49:18;31.20;67.80
52739;DHT22;52466;40.122;18.318;2022-08-19T18:52:26;31.20;67.70
52739;DHT22;52466;40.122;18.318;2022-08-19T18:55:34;31.30;67.50
52739;DHT22;52466;40.122;18.318;2022-08-19T18:58:43;31.20;67.40
52739;DHT22;52466;40.122;18.318;2022-08-19T19:01:52;31.20;67.30
52739;DHT22;52466;40.122;18.318;2022-08-19T19:05:00;31.20;67.20
52739;DHT22;52466;40.122;18.318;2022-08-19T19:08:08;31.10;67.20
52739;DHT22;52466;40.122;18.318;2022-08-19T19:11:22;31.10;67.10
52739;DHT22;52466;40.122;18.318;2022-08-19T19:14:33;31.10;66.90
52739;DHT22;52466;40.122;18.318;2022-08-19T19:17:41;31.10;66.30
52739;DHT22;52466;40.122;18.318;2022-08-19T19:20:49;31.00;65.80
52739;DHT22;52466;40.122;18.318;2022-08-19T19:23:57;31.00;65.30
52739;DHT22;52466;40.122;18.318;2022-08-19T19:27:05;31.00;64.80
52739;DHT22;52466;40.122;18.318;2022-08-19T19:30:14;31.00;64.50
52739;DHT22;52466;40.122;18.318;2022-08-19T19:33:23;31.00;64.20
52739;DHT22;52466;40.122;18.318;2022-08-19T19:36:31;31.00;64.00
52739;DHT22;52466;40.122;18.318;2022-08-19T19:39:39;31.00;63.90
52739;DHT22;52466;40.122;18.318;2022-08-19T19:42:47;31.00;63.80
52739;DHT22;52466;40.122;18.318;2022-08-19T19:45:56;31.00;63.80
52739;DHT22;52466;40.122;18.318;2022-08-19T19:49:04;31.00;63.80
52739;DHT22;52466;40.122;18.318;2022-08-19T19:52:12;31.00;63.90
52739;DHT22;52466;40.122;18.318;2022-08-19T19:55:20;31.00;64.10
52739;DHT22;52466;40.122;18.318;2022-08-19T19:58:33;30.90;64.10
52739;DHT22;52466;40.122;18.318;2022-08-19T20:01:43;30.90;64.20
52739;DHT22;52466;40.122;18.318;2022-08-19T20:04:52;30.90;64.30
52739;DHT22;52466;40.122;18.318;2022-08-19T20:08:03;30.90;64.40
52739;DHT22;52466;40.122;18.318;2022-08-19T20:14:40;30.90;64.70
52739;DHT22;52466;40.122;18.318;2022-08-19T20:17:48;30.90;64.80
52739;DHT22;52466;40.122;18.318;2022-08-19T20:20:57;30.90;64.90
52739;DHT22;52466;40.122;18.318;2022-08-19T20:24:05;30.80;65.00
52739;DHT22;52466;40.122;18.318;2022-08-19T20:27:13;30.80;65.30
52739;DHT22;52466;40.122;18.318;2022-08-19T20:30:21;30.80;65.50
52739;DHT22;52466;40.122;18.318;2022-08-19T20:33:29;30.70;65.70
